ěÝzenÝ letovÚho provozu ╚eskÚ republiky
Letiste: LKCV Aktualizace: 13.06.2021 22:27:23  UTC
 METAR LKCV 13.06. 22:30 ...
METAR LKCV 132230Z 23005KT CAVOK 11/08 Q1025 NOSIG RMK BLU BLU=
 TAF LKCV 13.06. 17:00 ...
TAF LKCV 131700Z 1318/1418 30007KT CAVOK      BECMG 1318/1320 VRB02KT      BECMG 1406/1408 35006KT      BECMG 1416/1418 VRB02KT=